createdAt,value
2023-02-24T00:00:32.099Z,7.38
2023-02-24T00:05:35.635Z,7.36
2023-02-24T00:10:37.598Z,7.34
2023-02-24T00:15:39.533Z,7.32
2023-02-24T00:20:41.236Z,7.28
2023-02-24T00:25:42.956Z,7.26
2023-02-24T00:30:46.424Z,7.23
2023-02-24T00:35:48.135Z,7.21
2023-02-24T00:40:49.917Z,7.19
2023-02-24T00:45:51.677Z,7.15
2023-02-24T00:50:55.815Z,7.14
2023-02-24T00:56:01.773Z,7.12
2023-02-24T01:01:04.882Z,7.12
2023-02-24T01:06:07.658Z,7.17
2023-02-24T01:11:28.607Z,7.18
2023-02-24T01:16:30.317Z,7.22
2023-02-24T01:21:32.136Z,7.24
2023-02-24T01:26:33.845Z,7.29
2023-02-24T01:31:38.717Z,7.34
2023-02-24T01:36:45.084Z,7.40
2023-02-24T01:41:49.909Z,7.46
2023-02-24T01:46:53.382Z,7.51
2023-02-24T01:52:02.120Z,7.54
2023-02-24T01:57:05.967Z,7.59
2023-02-24T02:02:09.692Z,7.64
2023-02-24T02:07:15.747Z,7.69
2023-02-24T02:12:17.568Z,7.73
2023-02-24T02:17:47.477Z,7.77
2023-02-24T02:23:07.563Z,7.81
2023-02-24T02:28:32.745Z,7.84
2023-02-24T02:34:00.013Z,7.86
2023-02-24T02:39:17.953Z,7.87
2023-02-24T02:44:27.501Z,7.86
2023-02-24T02:49:36.359Z,7.84
2023-02-24T02:54:49.940Z,7.78
2023-02-24T03:00:01.465Z,7.70
2023-02-24T03:05:09.438Z,7.57
2023-02-24T03:10:20.953Z,7.38
2023-02-24T03:15:25.016Z,7.21
2023-02-24T03:20:32.888Z,7.11
2023-02-24T03:26:16.949Z,7.01
2023-02-24T03:31:27.853Z,6.94
2023-02-24T03:36:30.738Z,6.89
2023-02-24T03:41:57.804Z,6.84
2023-02-24T03:47:10.916Z,6.78
2023-02-24T03:52:39.059Z,6.75
2023-02-24T03:58:18.475Z,6.73
2023-02-24T04:03:57.706Z,6.70
2023-02-24T04:09:27.734Z,6.68
2023-02-24T04:15:08.697Z,6.67
2023-02-24T04:20:17.100Z,6.64
2023-02-24T04:25:27.069Z,6.62
2023-02-24T04:30:34.372Z,6.60
2023-02-24T04:35:37.908Z,6.57
2023-02-24T04:40:40.910Z,6.54
2023-02-24T04:45:42.879Z,6.50
2023-02-24T04:50:44.754Z,6.48
2023-02-24T04:55:48.999Z,6.47
2023-02-24T05:06:23.770Z,6.47
2023-02-24T05:11:25.562Z,6.44
2023-02-24T05:16:28.968Z,6.42
2023-02-24T05:21:36.955Z,6.41
2023-02-24T05:26:41.802Z,6.42
2023-02-24T05:31:44.135Z,6.45
2023-02-24T05:36:47.074Z,6.45
2023-02-24T05:41:49.976Z,6.44
2023-02-24T05:47:00.858Z,6.43
2023-02-24T05:52:07.791Z,6.44
2023-02-24T05:57:13.106Z,6.51
2023-02-24T06:02:17.616Z,6.59
2023-02-24T06:07:24.848Z,6.67
2023-02-24T06:12:31.942Z,6.74
2023-02-24T06:17:33.826Z,6.79
2023-02-24T06:22:42.593Z,6.83
2023-02-24T06:27:45.017Z,6.85
2023-02-24T06:32:46.914Z,6.85
2023-02-24T06:37:48.799Z,6.84
2023-02-24T06:42:55.252Z,6.79
2023-02-24T06:47:58.063Z,6.73
2023-02-24T06:53:00.954Z,6.69
2023-02-24T06:58:05.898Z,6.67
2023-02-24T07:03:15.844Z,6.68
2023-02-24T07:08:23.171Z,6.67
2023-02-24T07:13:28.541Z,6.67
2023-02-24T07:18:31.012Z,6.69
2023-02-24T07:23:32.792Z,6.72
2023-02-24T07:28:34.567Z,6.76
2023-02-24T07:33:37.275Z,6.86
2023-02-24T07:38:39.480Z,6.93
2023-02-24T07:43:43.936Z,7.00
2023-02-24T07:48:46.548Z,7.08
2023-02-24T07:53:54.181Z,7.12
2023-02-24T07:59:01.960Z,7.14
2023-02-24T08:04:08.290Z,7.22
2023-02-24T08:09:20.635Z,7.41
2023-02-24T08:14:25.524Z,7.50
2023-02-24T08:19:47.628Z,7.47
2023-02-24T08:25:00.719Z,7.46
2023-02-24T08:30:02.959Z,7.41
2023-02-24T08:35:14.596Z,7.40
2023-02-24T08:40:33.141Z,7.38
2023-02-24T08:45:34.855Z,7.39
2023-02-24T08:50:39.490Z,7.43
2023-02-24T08:55:42.842Z,7.43
2023-02-24T09:00:53.400Z,7.44
2023-02-24T09:05:58.001Z,7.55
2023-02-24T09:11:02.009Z,7.63
2023-02-24T09:16:05.198Z,7.77
2023-02-24T09:21:30.872Z,7.93
2023-02-24T09:26:43.519Z,8.06
2023-02-24T09:31:55.347Z,8.20
2023-02-24T09:37:03.727Z,8.42
2023-02-24T09:42:13.063Z,8.68
2023-02-24T09:47:31.356Z,8.96
2023-02-24T09:52:42.319Z,9.05
2023-02-24T09:58:26.989Z,9.18
2023-02-24T10:03:42.418Z,9.49
2023-02-24T10:09:11.435Z,9.73
2023-02-24T10:14:19.585Z,9.86
2023-02-24T10:19:30.587Z,9.98
2023-02-24T10:24:41.358Z,9.97
2023-02-24T10:29:50.906Z,10.08
2023-02-24T10:34:53.359Z,10.28
2023-02-24T10:40:10.243Z,10.73
2023-02-24T10:45:26.367Z,11.18
2023-02-24T10:50:55.302Z,11.42
2023-02-24T10:56:17.723Z,11.23
2023-02-24T11:01:40.524Z,11.04
2023-02-24T11:06:52.578Z,10.88
2023-02-24T11:12:34.902Z,10.83
2023-02-24T11:17:38.346Z,10.79
2023-02-24T11:22:43.188Z,10.72
2023-02-24T11:27:46.531Z,10.79
2023-02-24T11:33:00.521Z,10.93
2023-02-24T11:38:16.104Z,11.09
2023-02-24T11:43:20.964Z,11.21
2023-02-24T11:48:34.162Z,11.07
2023-02-24T11:53:55.408Z,10.79
2023-02-24T11:59:07.525Z,10.44
2023-02-24T12:04:21.746Z,10.20
2023-02-24T12:09:30.219Z,10.16
2023-02-24T12:14:40.901Z,10.14
2023-02-24T12:20:05.141Z,10.08
2023-02-24T12:25:12.929Z,10.09
2023-02-24T12:30:47.351Z,10.05
2023-02-24T12:36:20.900Z,10.08
2023-02-24T12:41:39.295Z,10.03
2023-02-24T12:46:41.042Z,9.92
2023-02-24T12:52:00.864Z,9.89
2023-02-24T12:57:11.897Z,9.92
2023-02-24T13:02:57.700Z,10.00
2023-02-24T13:08:14.475Z,10.10
2023-02-24T13:13:46.440Z,10.20
2023-02-24T13:18:48.301Z,10.35
2023-02-24T13:23:58.148Z,10.37
2023-02-24T13:29:18.582Z,10.40
2023-02-24T13:34:32.980Z,10.28
2023-02-24T13:39:35.996Z,10.11
2023-02-24T13:45:02.999Z,10.03
2023-02-24T13:50:20.078Z,9.87
2023-02-24T13:55:46.969Z,9.37
2023-02-24T14:01:14.712Z,8.81
2023-02-24T14:06:25.297Z,8.63
2023-02-24T14:11:32.437Z,8.72
2023-02-24T14:16:39.868Z,8.84
2023-02-24T14:21:49.119Z,8.90
2023-02-24T14:26:56.551Z,9.07
2023-02-24T14:31:59.502Z,9.32
2023-02-24T14:37:03.990Z,9.49
2023-02-24T14:42:14.795Z,9.71
2023-02-24T14:47:19.018Z,10.12
2023-02-24T14:52:38.392Z,10.35
2023-02-24T14:57:45.246Z,10.37
2023-02-24T15:02:52.889Z,10.34
2023-02-24T15:07:54.688Z,10.19
2023-02-24T15:13:01.073Z,9.93
2023-02-24T15:18:25.781Z,9.74
2023-02-24T15:23:47.561Z,9.60
2023-02-24T15:28:56.454Z,9.45
2023-02-24T15:34:03.379Z,9.33
2023-02-24T15:39:15.695Z,9.27
2023-02-24T15:44:33.970Z,9.19
2023-02-24T15:49:35.677Z,9.11
2023-02-24T15:54:39.293Z,9.08
2023-02-24T15:59:41.190Z,9.03
2023-02-24T16:04:42.993Z,8.95
2023-02-24T16:09:46.922Z,8.88
2023-02-24T16:15:02.188Z,8.84
2023-02-24T16:20:08.602Z,8.81
2023-02-24T16:25:15.294Z,8.76
2023-02-24T16:30:22.461Z,8.70
2023-02-24T16:35:25.943Z,8.51
2023-02-24T16:40:30.950Z,8.34
2023-02-24T16:45:34.494Z,8.09
2023-02-24T16:50:39.508Z,7.74
2023-02-24T16:55:43.278Z,7.37
2023-02-24T17:00:48.007Z,7.05
2023-02-24T17:05:51.636Z,6.80
2023-02-24T17:10:54.230Z,6.56
2023-02-24T17:15:57.440Z,6.35
2023-02-24T17:20:59.719Z,6.17
2023-02-24T17:26:02.715Z,6.02
2023-02-24T17:31:05.525Z,5.89
2023-02-24T17:36:07.522Z,5.84
2023-02-24T17:41:09.912Z,5.85
2023-02-24T17:46:11.689Z,5.87
2023-02-24T17:51:20.036Z,5.90
2023-02-24T17:56:22.204Z,5.94
2023-02-24T18:01:26.113Z,5.98
2023-02-24T18:06:27.877Z,6.02
2023-02-24T18:11:29.635Z,6.03
2023-02-24T18:16:31.476Z,6.02
2023-02-24T18:21:33.374Z,6.00
2023-02-24T18:26:35.705Z,5.94
2023-02-24T18:31:37.669Z,5.84
2023-02-24T18:36:40.456Z,5.77
2023-02-24T18:41:42.462Z,5.70
2023-02-24T18:46:44.394Z,5.65
2023-02-24T18:51:48.886Z,5.63
2023-02-24T18:56:50.928Z,5.64
2023-02-24T19:01:53.998Z,5.67
2023-02-24T19:06:55.817Z,5.69
2023-02-24T19:11:57.584Z,5.67
2023-02-24T19:17:01.241Z,5.58
2023-02-24T19:22:03.024Z,5.54
2023-02-24T19:27:04.781Z,5.56
2023-02-24T19:32:06.654Z,5.62
2023-02-24T19:37:08.577Z,5.70
2023-02-24T19:42:10.391Z,5.77
2023-02-24T19:47:12.138Z,5.88
2023-02-24T19:52:14.078Z,5.98
2023-02-24T19:57:15.933Z,6.08
2023-02-24T20:02:17.761Z,6.14
2023-02-24T20:07:19.673Z,6.19
2023-02-24T20:12:21.573Z,6.21
2023-02-24T20:17:23.385Z,6.21
2023-02-24T20:22:25.129Z,6.21
2023-02-24T20:27:26.905Z,6.23
2023-02-24T20:32:28.746Z,6.27
2023-02-24T20:37:30.528Z,6.34
2023-02-24T20:42:32.356Z,6.41
2023-02-24T20:47:34.077Z,6.45
2023-02-24T20:52:37.660Z,6.48
2023-02-24T20:57:40.559Z,6.51
2023-02-24T21:02:42.808Z,6.55
2023-02-24T21:07:44.595Z,6.57
2023-02-24T21:12:47.369Z,6.56
2023-02-24T21:17:49.082Z,6.53
2023-02-24T21:22:52.506Z,6.52
2023-02-24T21:27:57.332Z,6.51
2023-02-24T21:32:59.100Z,6.49
2023-02-24T21:38:00.903Z,6.47
2023-02-24T21:43:04.512Z,6.46
2023-02-24T21:48:06.797Z,6.41
2023-02-24T21:53:08.786Z,6.38
2023-02-24T21:58:10.495Z,6.37
2023-02-24T22:03:12.581Z,6.36
2023-02-24T22:08:14.511Z,6.37
2023-02-24T22:13:22.786Z,6.41
2023-02-24T22:18:24.656Z,6.48
2023-02-24T22:23:26.721Z,6.52
2023-02-24T22:28:28.493Z,6.55
2023-02-24T22:33:32.310Z,6.50
2023-02-24T22:38:35.740Z,6.33
2023-02-24T22:43:37.699Z,6.25
2023-02-24T22:48:40.595Z,6.23
2023-02-24T22:53:46.673Z,6.25
2023-02-24T22:58:48.995Z,6.25
2023-02-24T23:03:51.711Z,6.25
2023-02-24T23:08:54.514Z,6.23
2023-02-24T23:13:58.979Z,6.22
2023-02-24T23:19:06.092Z,6.20
2023-02-24T23:24:11.087Z,6.06
2023-02-24T23:29:15.499Z,5.85
2023-02-24T23:34:18.887Z,5.63
2023-02-24T23:39:23.646Z,5.46
2023-02-24T23:44:25.776Z,5.35
2023-02-24T23:49:36.278Z,5.27
2023-02-24T23:54:41.036Z,5.21
2023-02-24T23:59:43.044Z,5.15
